Time;durP1;ratioP1;P1;durP2;ratioP2;P2;SDS_P1;SDS_P2;PMS_P1;PMS_P2;Temp;Humidity;BMP_temperature;BMP_pressure;BME280_temperature;BME280_humidity;BME280_pressure;Samples;Min_cycle;Max_cycle;Signal;HPM_P1;HPM_P2
2022/01/04 00:00:15;;;;;;;57.78;31.77;;;;;;;5.32;100.00;100910.28;5034182;28;20061;-70
2022/01/04 00:02:43;;;;;;;59.08;32.53;;;;;;;5.32;100.00;100896.72;5041585;28;20049;-70
2022/01/04 00:05:11;;;;;;;59.72;31.45;;;;;;;5.33;100.00;100905.69;5038494;28;20050;-70
2022/01/04 00:07:39;;;;;;;62.15;32.97;;;;;;;5.37;100.00;100901.41;5040566;28;20515;-70
2022/01/04 00:10:08;;;;;;;61.22;31.13;;;;;;;5.36;100.00;100905.19;5037282;28;20386;-70
2022/01/04 00:15:23;;;;;;;57.40;32.00;;;;;;;5.44;100.00;100895.88;5037020;28;20591;-70
2022/01/04 00:17:52;;;;;;;55.20;30.45;;;;;;;5.46;100.00;100886.44;5040426;28;21197;-70
2022/01/04 00:20:20;;;;;;;55.25;29.33;;;;;;;5.50;100.00;100881.34;5043070;28;20056;-70
2022/01/04 00:22:48;;;;;;;61.63;30.63;;;;;;;5.70;100.00;100878.25;5042300;28;20037;-70
2022/01/04 00:25:19;;;;;;;55.00;31.27;;;;;;;5.74;100.00;100879.44;5036076;28;20488;-70
2022/01/04 00:27:47;;;;;;;57.58;29.70;;;;;;;5.68;100.00;100872.25;5042759;28;20052;-70
2022/01/04 00:30:15;;;;;;;59.33;30.77;;;;;;;5.60;100.00;100868.00;5034628;28;20064;-70
2022/01/04 00:32:43;;;;;;;56.72;30.05;;;;;;;5.63;100.00;100855.84;5042662;28;20435;-70
2022/01/04 00:35:11;;;;;;;58.03;31.50;;;;;;;5.55;100.00;100865.19;5042785;28;20056;-70
2022/01/04 00:37:39;;;;;;;53.17;29.90;;;;;;;5.51;100.00;100861.28;5040274;28;20515;-70
2022/01/04 00:40:08;;;;;;;57.00;31.42;;;;;;;5.46;100.00;100856.59;5034355;28;20041;-70
2022/01/04 00:42:36;;;;;;;59.58;32.33;;;;;;;5.41;100.00;100858.34;5039322;28;20047;-70
2022/01/04 00:45:05;;;;;;;57.63;30.80;;;;;;;5.36;100.00;100862.63;5040668;28;20273;-70
2022/01/04 00:47:45;;;;;;;53.00;30.42;;;;;;;5.41;100.00;100850.19;5037493;28;20037;-70
2022/01/04 00:50:13;;;;;;;51.00;29.27;;;;;;;5.49;100.00;100852.56;5033216;28;20488;-70
2022/01/04 00:52:41;;;;;;;54.97;29.52;;;;;;;5.62;100.00;100849.56;5035923;28;20493;-69
2022/01/04 00:55:09;;;;;;;54.78;29.80;;;;;;;5.61;100.00;100847.94;5030451;28;20052;-69
2022/01/04 00:57:37;;;;;;;57.45;29.42;;;;;;;5.77;100.00;100845.53;5038281;28;20041;-69
2022/01/04 01:00:08;;;;;;;52.40;30.08;;;;;;;5.62;100.00;100846.88;5034196;28;20057;-69
2022/01/04 01:02:36;;;;;;;56.05;30.65;;;;;;;5.57;100.00;100852.19;5034743;28;20112;-69
2022/01/04 01:05:05;;;;;;;54.70;29.80;;;;;;;5.54;100.00;100849.97;5031671;28;20076;-70
2022/01/04 01:07:34;;;;;;;58.33;30.02;;;;;;;5.50;100.00;100852.34;5029608;28;20052;-70
2022/01/04 01:12:48;;;;;;;58.50;30.52;;;;;;;5.44;100.00;100841.59;5031139;28;20056;-70
2022/01/04 01:15:16;;;;;;;54.13;29.65;;;;;;;5.43;100.00;100842.66;5063317;28;20053;-70
2022/01/04 01:17:44;;;;;;;55.22;29.00;;;;;;;5.42;100.00;100839.13;5015958;28;20037;-70
2022/01/04 01:20:13;;;;;;;59.58;30.42;;;;;;;5.42;100.00;100833.69;5036114;28;20076;-70
2022/01/04 01:22:42;;;;;;;60.08;30.52;;;;;;;5.46;100.00;100839.47;5030509;28;20045;-69
2022/01/04 01:25:13;;;;;;;56.78;29.58;;;;;;;5.44;100.00;100831.56;5033522;28;20405;-70
2022/01/04 01:27:41;;;;;;;59.47;29.42;;;;;;;5.45;100.00;100830.50;5032678;28;20068;-70
2022/01/04 01:30:10;;;;;;;56.97;29.67;;;;;;;5.45;100.00;100829.66;5033157;28;20057;-70
2022/01/04 01:32:38;;;;;;;55.40;28.48;;;;;;;5.42;100.00;100830.16;5032943;28;20046;-69
2022/01/04 01:35:07;;;;;;;53.97;27.33;;;;;;;5.40;100.00;100832.28;5033452;28;20396;-69
2022/01/04 01:37:35;;;;;;;51.75;27.00;;;;;;;5.49;100.00;100826.22;5041793;28;20045;-70
2022/01/04 01:40:04;;;;;;;49.17;27.60;;;;;;;5.53;100.00;100817.63;5039995;28;20038;-70
2022/01/04 01:42:32;;;;;;;55.38;28.73;;;;;;;5.59;100.00;100825.63;5040737;28;20064;-69
2022/01/04 01:45:00;;;;;;;59.83;29.58;;;;;;;5.54;100.00;100808.41;5034922;28;20041;-70
2022/01/04 01:47:29;;;;;;;51.78;27.70;;;;;;;5.55;100.00;100802.75;5035996;28;20061;-70
2022/01/04 01:49:58;;;;;;;57.33;29.05;;;;;;;5.55;100.00;100800.03;5034768;28;20045;-69
2022/01/04 01:52:26;;;;;;;55.15;27.05;;;;;;;5.56;100.00;100798.94;5036532;28;20480;-70
2022/01/04 01:54:54;;;;;;;53.33;28.08;;;;;;;5.58;100.00;100796.00;5028044;28;20049;-70
2022/01/04 01:57:24;;;;;;;48.10;26.27;;;;;;;5.56;100.00;100800.84;5036297;28;20050;-70
2022/01/04 01:59:52;;;;;;;50.78;26.55;;;;;;;5.49;100.00;100784.69;5039058;28;20046;-70
2022/01/04 02:02:19;;;;;;;57.92;28.88;;;;;;;5.49;100.00;100776.56;5035739;28;20061;-70
2022/01/04 02:04:48;;;;;;;52.67;27.55;;;;;;;5.49;100.00;100782.00;5041985;28;20523;-70
2022/01/04 02:07:18;;;;;;;52.70;27.92;;;;;;;5.51;100.00;100774.41;5038668;28;20050;-70
2022/01/04 02:09:57;;;;;;;63.60;28.98;;;;;;;5.55;100.00;100767.44;5040595;28;21624;-70
2022/01/04 02:12:26;;;;;;;51.75;27.27;;;;;;;5.53;100.00;100764.16;5034591;28;20413;-70
2022/01/04 02:14:55;;;;;;;57.10;27.90;;;;;;;5.53;100.00;100747.03;5039604;28;20048;-69
2022/01/04 02:17:23;;;;;;;55.50;28.33;;;;;;;5.53;100.00;100753.31;5036353;28;20052;-69
2022/01/04 02:20:00;;;;;;;52.00;27.15;;;;;;;5.55;100.00;100744.88;5033734;28;20037;-69
2022/01/04 02:22:28;;;;;;;54.42;28.15;;;;;;;5.52;100.00;100748.91;5040249;28;20049;-69
2022/01/04 02:24:57;;;;;;;63.00;29.23;;;;;;;5.52;100.00;100746.19;5033026;28;20046;-70
2022/01/04 02:27:25;;;;;;;54.40;27.48;;;;;;;5.54;100.00;100735.09;5034724;28;20068;-69
2022/01/04 02:29:53;;;;;;;50.08;26.33;;;;;;;5.58;100.00;100741.72;5037773;28;20698;-70
2022/01/04 02:32:21;;;;;;;50.65;26.33;;;;;;;5.67;100.00;100739.44;5036625;28;20064;-70
2022/01/04 02:34:51;;;;;;;55.10;27.92;;;;;;;5.72;100.00;100725.94;5039246;28;20511;-70
2022/01/04 02:37:25;;;;;;;52.10;26.33;;;;;;;5.76;100.00;100735.22;5031015;28;20046;-70
2022/01/04 02:39:54;;;;;;;54.97;28.83;;;;;;;5.67;100.00;100734.81;5035560;28;20053;-70
2022/01/04 02:42:22;;;;;;;53.63;27.63;;;;;;;5.62;100.00;100734.72;5033194;28;20045;-70
2022/01/04 02:44:50;;;;;;;50.38;26.42;;;;;;;5.62;100.00;100723.88;5038394;28;20040;-70
2022/01/04 02:47:19;;;;;;;55.33;27.95;;;;;;;5.68;100.00;100719.34;5040252;28;20758;-70
2022/01/04 02:49:47;;;;;;;59.80;29.38;;;;;;;5.69;100.00;100705.53;5030774;28;20056;-70
2022/01/04 02:52:15;;;;;;;57.05;27.77;;;;;;;5.59;100.00;100719.75;5032588;28;20045;-70
2022/01/04 02:54:43;;;;;;;51.13;26.98;;;;;;;5.57;100.00;100719.16;5037176;28;20056;-70
2022/01/04 02:57:11;;;;;;;52.88;27.63;;;;;;;5.61;100.00;100717.59;5039052;28;20519;-70
2022/01/04 02:59:41;;;;;;;53.55;27.30;;;;;;;5.60;100.00;100705.09;5036214;28;20052;-70
2022/01/04 03:02:11;;;;;;;51.53;27.63;;;;;;;5.60;100.00;100699.69;5038685;28;20053;-70
2022/01/04 03:04:40;;;;;;;54.45;27.90;;;;;;;5.61;100.00;100701.31;5033799;28;20054;-70
2022/01/04 03:07:08;;;;;;;52.28;27.10;;;;;;;5.58;100.00;100699.06;5041297;28;20112;-69
2022/01/04 03:09:35;;;;;;;51.97;27.73;;;;;;;5.57;100.00;100699.34;5048377;28;20052;-69
2022/01/04 03:12:04;;;;;;;58.97;27.83;;;;;;;5.57;100.00;100697.44;5040317;28;20400;-69
2022/01/04 03:14:34;;;;;;;51.20;25.83;;;;;;;5.59;100.00;100702.63;5036966;28;20503;-69
2022/01/04 03:17:03;;;;;;;53.83;26.40;;;;;;;5.62;100.00;100694.81;5037424;28;20049;-69
2022/01/04 03:19:31;;;;;;;57.55;28.25;;;;;;;5.60;100.00;100699.69;5033844;28;20049;-69
2022/01/04 03:22:00;;;;;;;49.38;26.63;;;;;;;5.67;100.00;100698.69;5039321;28;20045;-69
2022/01/04 03:24:28;;;;;;;60.20;28.20;;;;;;;5.63;100.00;100688.31;5041982;28;20411;-70
2022/01/04 03:26:57;;;;;;;48.63;25.67;;;;;;;5.67;100.00;100687.84;5033535;28;20606;-69
2022/01/04 03:29:26;;;;;;;58.13;29.48;;;;;;;5.65;100.00;100686.19;5043961;28;20053;-70
2022/01/04 03:31:57;;;;;;;60.97;27.23;;;;;;;5.63;100.00;100691.03;5041312;28;20034;-70
2022/01/04 03:34:25;;;;;;;61.28;28.20;;;;;;;5.63;100.00;100687.50;5027722;28;20052;-70
2022/01/04 03:36:53;;;;;;;53.38;26.88;;;;;;;5.65;100.00;100680.75;5039914;28;20057;-70
2022/01/04 03:39:21;;;;;;;52.47;26.75;;;;;;;5.60;100.00;100677.97;5034903;28;20037;-69
2022/01/04 03:41:50;;;;;;;51.33;26.23;;;;;;;5.64;100.00;100679.09;5038605;28;20499;-70
2022/01/04 03:44:20;;;;;;;52.78;28.10;;;;;;;5.65;100.00;100669.91;5034406;28;20492;-69
2022/01/04 03:46:52;;;;;;;63.97;28.58;;;;;;;5.64;100.00;100672.84;5037492;28;20045;-69
2022/01/04 03:49:20;;;;;;;60.05;27.13;;;;;;;5.65;100.00;100659.03;5038337;28;20057;-70
2022/01/04 03:51:49;;;;;;;55.65;27.70;;;;;;;5.61;100.00;100662.47;5039270;28;20507;-70
2022/01/04 03:54:19;;;;;;;53.50;27.08;;;;;;;5.67;100.00;100671.56;5031535;28;20072;-69
2022/01/04 03:56:47;;;;;;;55.40;27.05;;;;;;;5.65;100.00;100659.03;5034413;28;20048;-70
2022/01/04 03:59:15;;;;;;;56.78;26.73;;;;;;;5.68;100.00;100670.47;5037017;28;20265;-70
2022/01/04 04:01:43;;;;;;;55.95;28.25;;;;;;;5.69;100.00;100659.38;5035746;28;20052;-70
2022/01/04 04:04:11;;;;;;;57.10;26.33;;;;;;;5.77;100.00;100655.44;5028224;28;20072;-70
2022/01/04 04:06:40;;;;;;;57.70;25.73;;;;;;;5.70;100.00;100654.75;5031414;28;20041;-70
2022/01/04 04:09:08;;;;;;;50.78;25.90;;;;;;;5.69;100.00;100647.69;5036359;28;20409;-69
2022/01/04 04:11:36;;;;;;;56.55;28.48;;;;;;;5.73;100.00;100644.22;5034624;28;20053;-69
2022/01/04 04:14:04;;;;;;;54.10;26.98;;;;;;;5.73;100.00;100646.94;5037780;28;20056;-70
2022/01/04 04:16:33;;;;;;;52.42;27.10;;;;;;;5.70;100.00;100638.47;5032479;28;20690;-70
2022/01/04 04:19:01;;;;;;;64.50;28.55;;;;;;;5.62;100.00;100643.22;5036827;28;20041;-70
2022/01/04 04:21:29;;;;;;;49.55;25.67;;;;;;;5.67;100.00;100623.47;5037310;28;20065;-70
2022/01/04 04:23:57;;;;;;;54.88;28.48;;;;;;;5.68;100.00;100627.03;5033358;28;20045;-70
2022/01/04 04:26:25;;;;;;;55.42;27.33;;;;;;;5.68;100.00;100641.44;5036724;28;20041;-69
2022/01/04 04:28:53;;;;;;;54.78;28.67;;;;;;;5.70;100.00;100633.03;5041130;28;20052;-70
2022/01/04 04:31:21;;;;;;;53.92;26.75;;;;;;;5.68;100.00;100630.59;5027936;28;20382;-70
2022/01/04 04:33:49;;;;;;;55.15;26.25;;;;;;;5.73;100.00;100632.56;5039195;28;20053;-70
2022/01/04 04:36:17;;;;;;;56.55;27.35;;;;;;;5.77;100.00;100618.22;5035328;28;20053;-70
2022/01/04 04:38:45;;;;;;;50.95;27.52;;;;;;;5.75;100.00;100620.38;5037568;28;20045;-70
2022/01/04 04:41:13;;;;;;;53.45;25.63;;;;;;;5.74;100.00;100621.44;5038153;28;20066;-70
2022/01/04 04:43:41;;;;;;;52.33;25.65;;;;;;;5.74;100.00;100628.75;5041362;28;20045;-70
2022/01/04 04:46:09;;;;;;;55.47;26.15;;;;;;;5.80;100.00;100627.78;5035086;28;20037;-70
2022/01/04 04:48:38;;;;;;;54.65;27.17;;;;;;;5.83;100.00;100616.44;5039987;28;20053;-69
2022/01/04 04:51:05;;;;;;;52.88;26.42;;;;;;;5.87;100.00;100623.00;5036845;28;20049;-69
2022/01/04 04:53:33;;;;;;;53.35;27.00;;;;;;;5.71;100.00;100627.34;5039656;28;20499;-70
2022/01/04 04:56:01;;;;;;;54.95;28.15;;;;;;;5.67;100.00;100626.19;5043628;28;20046;-69
2022/01/04 04:58:29;;;;;;;55.10;27.70;;;;;;;5.71;100.00;100624.66;5037414;28;20090;-69
2022/01/04 05:00:57;;;;;;;57.40;27.73;;;;;;;5.69;100.00;100623.25;5040580;28;20610;-70
2022/01/04 05:03:26;;;;;;;59.42;27.45;;;;;;;5.72;100.00;100623.56;5039141;28;20045;-70
2022/01/04 05:05:54;;;;;;;54.47;27.95;;;;;;;5.72;100.00;100618.13;5053285;28;20057;-70
2022/01/04 05:08:22;;;;;;;54.50;26.88;;;;;;;5.85;100.00;100614.28;5038622;28;20056;-70
2022/01/04 05:10:50;;;;;;;58.13;26.98;;;;;;;5.84;100.00;100631.66;5040843;28;20049;-70
2022/01/04 05:13:17;;;;;;;53.10;27.52;;;;;;;5.76;100.00;100627.44;5035432;28;20518;-70
2022/01/04 05:15:45;;;;;;;54.92;28.02;;;;;;;5.65;100.00;100634.59;5034917;28;20041;-70
2022/01/04 05:18:13;;;;;;;53.92;27.00;;;;;;;5.61;100.00;100640.75;5036788;28;20053;-70
2022/01/04 05:20:41;;;;;;;62.28;27.92;;;;;;;5.72;100.00;100636.34;5038643;28;20476;-70
2022/01/04 05:23:09;;;;;;;52.92;28.75;;;;;;;5.61;100.00;100635.31;5028895;28;20056;-69
2022/01/04 05:25:37;;;;;;;55.58;29.23;;;;;;;5.58;100.00;100630.41;5030937;28;20045;-70
2022/01/04 05:28:05;;;;;;;56.78;27.92;;;;;;;5.52;100.00;100626.75;5033478;28;20393;-70
2022/01/04 05:30:33;;;;;;;55.58;29.42;;;;;;;5.63;100.00;100627.78;5031797;28;20044;-70
2022/01/04 05:33:01;;;;;;;52.13;28.55;;;;;;;5.50;100.00;100618.03;5033102;28;20397;-70
2022/01/04 05:35:29;;;;;;;56.78;28.42;;;;;;;5.58;100.00;100625.78;5029676;28;20589;-70
2022/01/04 05:37:57;;;;;;;54.53;28.42;;;;;;;5.63;100.00;100630.50;5031248;28;20046;-70
2022/01/04 05:40:25;;;;;;;60.72;29.67;;;;;;;5.60;100.00;100620.94;5030997;28;20053;-70
2022/01/04 05:42:53;;;;;;;51.40;27.92;;;;;;;5.51;100.00;100625.13;5027999;28;20038;-70
2022/01/04 05:45:21;;;;;;;56.20;28.48;;;;;;;5.46;100.00;100619.59;5033784;28;20042;-69
2022/01/04 05:47:49;;;;;;;56.03;28.20;;;;;;;5.44;100.00;100619.84;5029072;28;20054;-70
2022/01/04 05:50:17;;;;;;;59.28;28.50;;;;;;;5.39;100.00;100614.34;5026082;28;20508;-69
2022/01/04 05:52:45;;;;;;;49.80;26.65;;;;;;;5.45;100.00;100626.09;5028644;28;20057;-69
2022/01/04 05:55:13;;;;;;;52.92;28.38;;;;;;;5.44;100.00;100624.44;5025712;28;20056;-69
2022/01/04 05:57:41;;;;;;;56.88;28.63;;;;;;;5.33;100.00;100618.84;5029722;28;20057;-70
2022/01/04 06:00:10;;;;;;;53.95;28.20;;;;;;;5.30;100.00;100608.47;5030422;28;20068;-70
2022/01/04 06:02:39;;;;;;;61.25;29.40;;;;;;;5.37;100.00;100598.28;5028118;28;20393;-70
2022/01/04 06:05:08;;;;;;;55.03;26.15;;;;;;;5.40;100.00;100591.56;5033768;28;20042;-70
2022/01/04 06:07:37;;;;;;;50.95;27.15;;;;;;;5.36;100.00;100596.66;5038930;28;20488;-70
2022/01/04 06:10:07;;;;;;;51.53;27.80;;;;;;;5.32;100.00;100576.47;5032111;28;20063;-69
2022/01/04 06:15:10;;;;;;;54.58;28.17;;;;;;;5.34;100.00;100568.91;5032384;28;20509;-70
2022/01/04 06:17:42;;;;;;;59.78;27.73;;;;;;;5.24;100.00;100576.91;5030948;28;20045;-70
2022/01/04 06:20:13;;;;;;;52.70;27.92;;;;;;;5.27;100.00;100578.31;5029094;28;20068;-71
2022/01/04 06:22:41;;;;;;;53.33;27.67;;;;;;;5.27;100.00;100581.81;5051220;28;20136;-70
2022/01/04 06:25:12;;;;;;;51.85;27.50;;;;;;;5.18;100.00;100581.38;5039007;28;20054;-70
2022/01/04 06:27:45;;;;;;;52.97;27.75;;;;;;;5.21;100.00;100588.22;5034715;28;20048;-70
2022/01/04 06:30:15;;;;;;;58.05;28.70;;;;;;;5.29;100.00;100582.41;5045743;28;20049;-70
2022/01/04 06:32:44;;;;;;;53.22;28.23;;;;;;;5.23;100.00;100600.47;5048959;28;20510;-70
2022/01/04 06:35:14;;;;;;;59.35;28.67;;;;;;;5.50;100.00;100596.31;5051554;28;20057;-70
2022/01/04 06:37:44;;;;;;;53.13;28.70;;;;;;;5.46;100.00;100589.72;5052243;28;20045;-70
2022/01/04 06:40:13;;;;;;;60.25;29.08;;;;;;;5.27;100.00;100597.28;5036590;28;20057;-70
2022/01/04 06:42:41;;;;;;;52.50;26.95;;;;;;;5.29;100.00;100581.59;5032553;28;20053;-70
2022/01/04 06:45:11;;;;;;;58.78;30.27;;;;;;;5.41;100.00;100592.34;5033510;28;20045;-70
2022/01/04 06:47:39;;;;;;;60.33;30.35;;;;;;;5.43;100.00;100603.81;5049237;28;20053;-70
2022/01/04 06:50:08;;;;;;;59.83;28.77;;;;;;;5.41;100.00;100604.06;5044958;28;20046;-70
2022/01/04 06:52:36;;;;;;;53.85;28.58;;;;;;;5.35;100.00;100600.44;5046432;28;20052;-70
2022/01/04 06:55:04;;;;;;;58.00;29.92;;;;;;;5.34;100.00;100597.97;5052315;28;20049;-71
2022/01/04 06:57:32;;;;;;;54.35;29.38;;;;;;;5.30;100.00;100581.34;5052327;28;20063;-72
2022/01/04 07:00:01;;;;;;;64.00;28.10;;;;;;;5.25;100.00;100611.91;5025464;28;20411;-72
2022/01/04 07:02:28;;;;;;;55.60;28.30;;;;;;;5.36;100.00;100626.50;5036440;28;20058;-72
2022/01/04 07:04:56;;;;;;;63.20;28.42;;;;;;;5.43;100.00;100620.09;5035628;28;20040;-72
2022/01/04 07:07:25;;;;;;;53.22;27.73;;;;;;;5.36;100.00;100612.09;5051782;28;20064;-72
2022/01/04 07:09:53;;;;;;;59.55;28.88;;;;;;;5.48;100.00;100614.75;5051546;28;20052;-72
2022/01/04 07:12:21;;;;;;;54.55;27.77;;;;;;;5.47;100.00;100610.41;5038420;28;20056;-72
2022/01/04 07:14:51;;;;;;;52.60;28.15;;;;;;;5.37;100.00;100614.56;5048196;28;20068;-72
2022/01/04 07:17:19;;;;;;;56.78;28.67;;;;;;;5.36;100.00;100607.50;5052184;28;20400;-72
2022/01/04 07:19:49;;;;;;;55.88;27.38;;;;;;;5.27;100.00;100608.97;5051472;28;20076;-72
2022/01/04 07:22:17;;;;;;;57.58;28.42;;;;;;;5.25;100.00;100601.06;5052066;28;20056;-72
2022/01/04 07:24:46;;;;;;;62.67;28.88;;;;;;;5.25;100.00;100608.38;5052452;28;20056;-72
2022/01/04 07:27:14;;;;;;;61.10;29.17;;;;;;;5.20;100.00;100594.72;5042989;28;20053;-72
2022/01/04 07:29:42;;;;;;;57.08;28.05;;;;;;;5.27;100.00;100598.09;5044643;28;20054;-72
2022/01/04 07:32:10;;;;;;;67.53;29.77;;;;;;;5.28;100.00;100604.38;5045185;28;20404;-72
2022/01/04 07:34:38;;;;;;;57.83;28.45;;;;;;;5.30;100.00;100597.63;5051054;28;20057;-72
2022/01/04 07:37:06;;;;;;;60.97;29.13;;;;;;;5.25;100.00;100605.66;5051803;28;20492;-71
2022/01/04 07:39:34;;;;;;;67.00;30.00;;;;;;;5.27;100.00;100619.81;5052183;28;20510;-71
2022/01/04 07:42:03;;;;;;;56.05;26.55;;;;;;;5.28;100.00;100626.88;5051738;28;20044;-71
2022/01/04 07:44:33;;;;;;;59.22;27.50;;;;;;;5.38;100.00;100620.84;5049865;28;20771;-71
2022/01/04 07:47:01;;;;;;;63.95;29.08;;;;;;;5.33;100.00;100607.97;5041383;28;20055;-72
2022/01/04 07:49:29;;;;;;;59.58;28.17;;;;;;;5.25;100.00;100611.91;5049067;28;20055;-72
2022/01/04 07:52:03;;;;;;;59.17;28.65;;;;;;;5.31;100.00;100614.72;5051860;28;20103;-72
2022/01/04 07:54:51;;;;;;;54.80;26.38;;;;;;;5.40;100.00;100607.00;5050059;28;20053;-72
2022/01/04 07:57:19;;;;;;;59.55;27.73;;;;;;;5.41;100.00;100609.47;5050257;28;20049;-72
2022/01/04 07:59:47;;;;;;;60.08;28.63;;;;;;;5.36;100.00;100618.38;5038304;28;20384;-72
2022/01/04 08:02:16;;;;;;;61.10;27.60;;;;;;;5.32;100.00;100606.34;5031079;28;20074;-72
2022/01/04 08:04:43;;;;;;;53.75;28.30;;;;;;;5.53;100.00;100608.59;5036678;28;20400;-72
2022/01/04 08:07:12;;;;;;;51.83;27.77;;;;;;;5.48;100.00;100615.56;5049864;28;20066;-72
2022/01/04 08:09:41;;;;;;;51.45;27.75;;;;;;;5.49;100.00;100616.41;5034365;28;20049;-71
2022/01/04 08:12:10;;;;;;;55.72;27.13;;;;;;;5.42;100.00;100615.75;5042575;28;20412;-73
2022/01/04 08:14:38;;;;;;;56.55;28.08;;;;;;;5.47;100.00;100603.06;5043293;28;20049;-73
2022/01/04 08:17:06;;;;;;;59.65;28.80;;;;;;;5.54;100.00;100610.22;5055358;28;20404;-73
2022/01/04 08:19:34;;;;;;;63.60;29.60;;;;;;;5.62;100.00;100609.84;5050307;28;20049;-73
2022/01/04 08:22:04;;;;;;;58.05;29.52;;;;;;;5.68;100.00;100603.44;5039775;28;20053;-78
2022/01/04 08:24:40;;;;;;;58.78;28.77;;;;;;;5.91;100.00;100609.75;5017397;28;20068;-72
2022/01/04 08:27:08;;;;;;;58.13;28.45;;;;;;;5.97;100.00;100621.53;5047356;28;20054;-72
2022/01/04 08:29:36;;;;;;;57.72;29.23;;;;;;;5.90;100.00;100603.50;5052154;28;20049;-73
2022/01/04 08:32:04;;;;;;;54.92;28.08;;;;;;;5.79;100.00;100598.97;5025053;28;20052;-72
2022/01/04 08:34:33;;;;;;;66.25;30.50;;;;;;;5.79;100.00;100588.13;5036372;28;20046;-72
2022/01/04 08:37:04;;;;;;;68.72;28.95;;;;;;;5.78;100.00;100592.72;5033627;28;20041;-72
2022/01/04 08:39:33;;;;;;;56.03;27.02;;;;;;;5.78;100.00;100591.91;5034022;28;20065;-72
2022/01/04 08:42:02;;;;;;;57.25;28.73;;;;;;;5.77;100.00;100595.69;5032574;28;20037;-73
2022/01/04 08:44:32;;;;;;;55.80;28.48;;;;;;;5.94;100.00;100587.53;5030339;28;20055;-73
2022/01/04 08:47:01;;;;;;;58.20;27.05;;;;;;;5.97;100.00;100572.63;5030836;28;20045;-72
2022/01/04 08:49:30;;;;;;;59.53;28.25;;;;;;;6.20;100.00;100568.09;5033417;28;21113;-72
2022/01/04 08:51:58;;;;;;;56.72;26.95;;;;;;;6.20;100.00;100568.09;5032673;28;20412;-73
2022/01/04 08:54:26;;;;;;;57.92;29.23;;;;;;;6.42;100.00;100574.38;5031863;28;20045;-74
2022/01/04 08:56:54;;;;;;;57.13;28.40;;;;;;;6.22;100.00;100582.25;5033087;28;20045;-73
2022/01/04 08:59:23;;;;;;;61.60;29.00;;;;;;;6.14;100.00;100589.75;5034442;28;20053;-73
2022/01/04 09:01:52;;;;;;;65.05;29.77;;;;;;;6.20;100.00;100590.63;5034451;28;20054;-72
2022/01/04 09:04:21;;;;;;;54.22;28.33;;;;;;;6.37;100.00;100578.91;5034327;28;20053;-73
2022/01/04 09:06:55;;;;;;;68.93;30.77;;;;;;;6.47;100.00;100573.63;5024596;28;20069;-77
2022/01/04 09:09:24;;;;;;;59.33;28.88;;;;;;;6.44;100.00;100566.78;5034513;28;20700;-77
2022/01/04 09:11:52;;;;;;;54.83;27.73;;;;;;;6.43;100.00;100565.13;5032331;28;20048;-76
2022/01/04 09:14:40;;;;;;;58.65;28.98;;;;;;;6.40;100.00;100573.78;5034324;28;20045;-76
2022/01/04 09:19:56;;;;;;;57.45;30.20;;;;;;;6.39;100.00;100593.91;5034444;28;20052;-77
2022/01/04 09:22:24;;;;;;;55.30;29.38;;;;;;;6.54;100.00;100582.41;5053008;28;20056;-75
2022/01/04 09:24:55;;;;;;;53.17;27.02;;;;;;;6.41;100.00;100589.00;5054219;28;20404;-76
2022/01/04 09:27:23;;;;;;;66.78;29.42;;;;;;;6.57;100.00;100587.34;5052424;28;20055;-76
2022/01/04 09:29:51;;;;;;;59.50;29.35;;;;;;;6.57;100.00;100575.63;5053738;28;20060;-76
2022/01/04 09:32:19;;;;;;;58.08;30.15;;;;;;;6.65;100.00;100561.56;5052461;28;20045;-76
2022/01/04 09:34:48;;;;;;;56.08;28.95;;;;;;;6.85;100.00;100581.94;5053067;28;20057;-76
2022/01/04 09:37:16;;;;;;;59.35;29.20;;;;;;;6.80;100.00;100568.28;5053403;28;20504;-76
2022/01/04 09:39:44;;;;;;;63.20;29.15;;;;;;;6.84;100.00;100572.94;5053996;28;20041;-76
2022/01/04 09:42:12;;;;;;;62.28;29.52;;;;;;;6.70;100.00;100563.56;5053517;28;20077;-76
2022/01/04 09:44:40;;;;;;;60.65;29.30;;;;;;;6.43;100.00;100570.56;5053985;28;20056;-76
2022/01/04 09:47:08;;;;;;;59.50;29.33;;;;;;;6.47;100.00;100572.78;5054064;28;20045;-76
2022/01/04 09:49:36;;;;;;;59.05;29.25;;;;;;;6.41;100.00;100564.56;5053177;28;20053;-76
2022/01/04 09:52:08;;;;;;;64.70;32.25;;;;;;;6.42;100.00;100558.06;5053812;28;20051;-76
2022/01/04 09:54:39;;;;;;;65.63;31.98;;;;;;;6.57;100.00;100552.00;5053629;28;20068;-76
2022/01/04 09:57:07;;;;;;;66.45;30.27;;;;;;;6.59;100.00;100549.00;5053784;28;20037;-76
2022/01/04 09:59:35;;;;;;;63.20;31.70;;;;;;;6.59;100.00;100538.13;5054026;28;20055;-76
2022/01/04 10:02:19;;;;;;;68.40;29.90;;;;;;;6.64;100.00;100542.81;5053719;28;20503;-76
2022/01/04 10:04:48;;;;;;;62.17;29.92;;;;;;;6.61;100.00;100544.16;5035907;28;20049;-76
2022/01/04 10:07:22;;;;;;;63.63;30.15;;;;;;;6.51;100.00;100544.03;5053508;28;20049;-76
2022/01/04 10:09:52;;;;;;;66.50;31.40;;;;;;;6.59;100.00;100546.28;5038917;28;20049;-76
2022/01/04 10:12:21;;;;;;;65.88;30.13;;;;;;;6.69;100.00;100551.84;5053375;28;20525;-75
2022/01/04 10:14:51;;;;;;;62.30;30.45;;;;;;;6.58;100.00;100544.63;5053066;28;20500;-74
2022/01/04 10:17:30;;;;;;;66.40;30.38;;;;;;;6.62;100.00;100542.22;5053009;28;20045;-75
2022/01/04 10:20:00;;;;;;;61.05;29.33;;;;;;;6.43;100.00;100537.13;5039987;28;20404;-75
2022/01/04 10:22:32;;;;;;;60.03;30.55;;;;;;;6.36;100.00;100531.88;5052879;28;20048;-75
2022/01/04 10:25:00;;;;;;;64.97;31.75;;;;;;;6.47;100.00;100529.28;5044708;28;20064;-76
2022/01/04 10:27:46;;;;;;;60.08;28.38;;;;;;;6.28;100.00;100530.44;5052901;28;20041;-75
2022/01/04 10:30:26;;;;;;;62.78;29.77;;;;;;;6.41;100.00;100533.84;5053268;28;20049;-75
2022/01/04 10:33:02;;;;;;;55.85;29.05;;;;;;;6.37;100.00;100522.66;5027248;28;20053;-75
2022/01/04 10:35:45;;;;;;;67.18;31.00;;;;;;;6.27;100.00;100517.09;5051315;28;20053;-76
2022/01/04 10:38:21;;;;;;;59.53;29.75;;;;;;;6.26;100.00;100510.81;5051336;28;20060;-75
2022/01/04 10:41:01;;;;;;;60.72;29.52;;;;;;;6.35;100.00;100511.19;5052900;28;20053;-76
2022/01/04 10:43:39;;;;;;;58.42;28.65;;;;;;;6.33;100.00;100507.91;5045126;28;20056;-75
2022/01/04 10:46:18;;;;;;;63.83;30.75;;;;;;;6.48;100.00;100518.16;5052681;28;20045;-76
2022/01/04 10:48:48;;;;;;;63.15;30.83;;;;;;;6.44;100.00;100517.00;5043339;28;20048;-77
2022/01/04 10:51:22;;;;;;;62.17;30.10;;;;;;;6.47;100.00;100508.38;5052351;28;20411;-77
2022/01/04 10:54:00;;;;;;;63.60;30.33;;;;;;;6.57;100.00;100510.38;5050212;28;20492;-77
2022/01/04 10:56:33;;;;;;;64.45;30.38;;;;;;;6.46;100.00;100504.00;5031277;28;20308;-77
2022/01/04 10:59:17;;;;;;;59.55;29.05;;;;;;;6.45;100.00;100492.31;5030743;28;20053;-75
2022/01/04 11:01:50;;;;;;;64.80;32.10;;;;;;;6.72;100.00;100496.97;5029842;28;20053;-75
2022/01/04 11:04:20;;;;;;;62.17;29.67;;;;;;;6.56;100.00;100492.41;5031392;28;20109;-77
2022/01/04 11:06:56;;;;;;;60.65;29.85;;;;;;;6.52;100.00;100492.13;5030653;28;20385;-77
2022/01/04 11:09:24;;;;;;;65.88;28.35;;;;;;;6.51;100.00;100490.44;5028319;28;20045;-77
2022/01/04 11:11:53;;;;;;;59.28;30.30;;;;;;;6.53;100.00;100484.75;5031944;28;20050;-76
2022/01/04 11:14:25;;;;;;;60.15;29.70;;;;;;;6.49;100.00;100480.94;5031372;28;20041;-76
2022/01/04 11:16:54;;;;;;;59.42;29.55;;;;;;;6.48;100.00;100481.97;5030643;28;20064;-77
2022/01/04 11:19:23;;;;;;;56.58;28.33;;;;;;;6.57;100.00;100469.59;5030596;28;20037;-76
2022/01/04 11:21:52;;;;;;;58.42;28.50;;;;;;;6.53;100.00;100472.00;5033079;28;20054;-76
2022/01/04 11:24:23;;;;;;;58.60;29.52;;;;;;;6.52;100.00;100455.94;5012390;28;20512;-76
2022/01/04 11:26:53;;;;;;;60.30;29.48;;;;;;;6.49;100.00;100462.69;5029321;28;20045;-76
2022/01/04 11:29:26;;;;;;;62.60;31.15;;;;;;;6.48;100.00;100447.47;5030082;28;20045;-76